Time;durP1;ratioP1;P1;durP2;ratioP2;P2;SDS_P1;SDS_P2;PMS_P1;PMS_P2;Temp;Humidity;BMP_temperature;BMP_pressure;BME280_temperature;BME280_humidity;BME280_pressure;Samples;Min_cycle;Max_cycle;Signal;HPM_P1;HPM_P2
2023/03/20 00:01:28;;;;;;;12.82;5.38;;;26.30;31.70;;;;;;5100681;28;20099;-65
2023/03/20 00:03:56;;;;;;;15.43;6.18;;;26.30;31.60;;;;;;5105773;28;20094;-63
2023/03/20 00:06:25;;;;;;;16.60;5.75;;;26.20;31.90;;;;;;5100890;28;20069;-63
2023/03/20 00:08:53;;;;;;;7.88;4.20;;;26.20;32.10;;;;;;5098786;28;20078;-65
2023/03/20 00:11:20;;;;;;;14.73;3.60;;;26.20;32.40;;;;;;5088162;28;20569;-65
2023/03/20 00:13:46;;;;;;;7.93;2.25;;;26.10;32.30;;;;;;5094544;28;20074;-62
2023/03/20 00:16:13;;;;;;;10.05;3.15;;;26.10;32.40;;;;;;5096803;28;20074;-63
2023/03/20 00:18:40;;;;;;;10.48;3.13;;;26.00;32.00;;;;;;5096143;28;20066;-62
2023/03/20 00:21:17;;;;;;;11.00;2.08;;;25.90;31.80;;;;;;5089320;28;20173;-65
2023/03/20 00:23:44;;;;;;;5.55;2.10;;;25.90;31.60;;;;;;5093569;28;20508;-61
2023/03/20 00:26:20;;;;;;;12.00;2.63;;;25.70;32.00;;;;;;5087604;28;20067;-62
2023/03/20 00:28:47;;;;;;;5.47;2.65;;;25.70;32.10;;;;;;5093056;28;20079;-61
2023/03/20 00:31:17;;;;;;;7.65;2.20;;;25.70;32.00;;;;;;5084045;28;20086;-62
2023/03/20 00:33:44;;;;;;;6.05;2.03;;;25.60;31.80;;;;;;5124937;22;20622;-62
2023/03/20 00:36:10;;;;;;;8.88;1.73;;;25.60;32.70;;;;;;5126592;27;20077;-63
2023/03/20 00:38:37;;;;;;;13.10;2.50;;;25.50;33.00;;;;;;5120599;27;20095;-63
2023/03/20 00:41:32;;;;;;;13.90;2.58;;;25.50;33.30;;;;;;5121697;27;20089;-64
2023/03/20 00:44:03;;;;;;;13.43;2.72;;;25.50;33.70;;;;;;5121156;27;20102;-60
2023/03/20 00:46:38;;;;;;;14.20;2.15;;;25.40;33.60;;;;;;5125060;27;20073;-63
2023/03/20 00:49:05;;;;;;;11.50;2.08;;;25.40;33.40;;;;;;5122324;27;21524;-61
2023/03/20 00:51:31;;;;;;;16.08;2.75;;;25.40;33.60;;;;;;5124309;27;20086;-64
2023/03/20 00:53:58;;;;;;;12.90;2.67;;;25.30;33.60;;;;;;5123619;27;20066;-64
2023/03/20 00:56:41;;;;;;;13.98;2.53;;;25.30;33.80;;;;;;5124590;27;20089;-62
2023/03/20 00:59:17;;;;;;;10.40;2.05;;;25.30;33.90;;;;;;5121108;27;20106;-62
2023/03/20 01:01:43;;;;;;;7.78;1.73;;;25.20;34.20;;;;;;5121101;27;20090;-61
2023/03/20 01:04:13;;;;;;;7.90;1.98;;;25.10;34.40;;;;;;5120909;27;20096;-62
2023/03/20 01:06:39;;;;;;;9.77;3.00;;;25.10;34.70;;;;;;5125507;27;20520;-62
2023/03/20 01:09:06;;;;;;;15.18;2.47;;;25.10;34.70;;;;;;5121998;27;20082;-63
2023/03/20 01:11:32;;;;;;;11.70;2.58;;;25.10;35.00;;;;;;5124340;27;20096;-63
2023/03/20 01:13:59;;;;;;;15.85;2.22;;;25.10;35.10;;;;;;5121862;27;20083;-62
2023/03/20 01:16:26;;;;;;;18.58;3.08;;;25.00;35.10;;;;;;5123005;27;20090;-63
2023/03/20 01:18:53;;;;;;;6.47;2.47;;;25.00;35.30;;;;;;5119415;27;20073;-63
2023/03/20 01:21:20;;;;;;;14.23;3.85;;;25.00;35.30;;;;;;5122055;27;20073;-64
2023/03/20 01:23:48;;;;;;;18.00;8.70;;;25.00;35.20;;;;;;5122707;27;20070;-64
2023/03/20 01:26:23;;;;;;;22.15;9.75;;;24.90;35.20;;;;;;5121136;27;20531;-63
2023/03/20 01:28:51;;;;;;;22.70;9.30;;;24.90;35.40;;;;;;5121995;27;20085;-64
2023/03/20 01:31:18;;;;;;;22.65;10.57;;;24.80;35.50;;;;;;5125870;27;20416;-64
2023/03/20 01:33:45;;;;;;;23.00;10.32;;;24.70;36.20;;;;;;5121411;27;20136;-63
2023/03/20 01:36:19;;;;;;;14.05;3.72;;;24.70;35.70;;;;;;5120445;27;20075;-63
2023/03/20 01:38:54;;;;;;;14.43;3.78;;;24.60;36.20;;;;;;5121806;27;20066;-63
2023/03/20 01:41:24;;;;;;;10.85;3.15;;;24.60;35.80;;;;;;5121328;27;20081;-64
2023/03/20 01:43:52;;;;;;;12.38;2.88;;;24.60;35.80;;;;;;5122216;27;20462;-62
2023/03/20 01:46:24;;;;;;;9.05;2.45;;;24.50;36.00;;;;;;5117888;27;20066;-63
2023/03/20 01:48:59;;;;;;;11.52;2.63;;;24.40;36.40;;;;;;5125632;27;20203;-66
2023/03/20 01:51:28;;;;;;;44.25;3.80;;;24.40;36.10;;;;;;5122255;27;20079;-64
2023/03/20 01:54:12;;;;;;;20.02;3.17;;;24.40;36.20;;;;;;5124758;27;20078;-66
2023/03/20 01:56:49;;;;;;;19.40;2.97;;;24.40;36.50;;;;;;5123831;27;20069;-61
2023/03/20 01:59:41;;;;;;;11.32;2.63;;;24.40;37.30;;;;;;5123177;27;20097;-62
2023/03/20 02:02:11;;;;;;;9.15;2.65;;;24.30;36.80;;;;;;5117513;27;20539;-62
2023/03/20 02:04:41;;;;;;;11.02;2.30;;;24.20;37.00;;;;;;5124516;27;20560;-61
2023/03/20 02:07:10;;;;;;;25.52;6.47;;;24.10;37.10;;;;;;5123876;27;20063;-63
2023/03/20 02:09:36;;;;;;;16.33;3.30;;;24.10;37.70;;;;;;5123545;27;20078;-63
2023/03/20 02:12:03;;;;;;;26.50;14.77;;;23.90;38.00;;;;;;5113570;27;20114;-61
2023/03/20 02:14:32;;;;;;;21.73;8.98;;;23.90;38.80;;;;;;5122190;27;20547;-64
2023/03/20 02:16:58;;;;;;;21.25;9.20;;;23.80;38.50;;;;;;5124583;27;20079;-63
2023/03/20 02:19:49;;;;;;;12.90;4.22;;;23.80;38.30;;;;;;5118373;27;20081;-63
2023/03/20 02:22:22;;;;;;;13.02;3.15;;;23.80;38.60;;;;;;5114460;27;20075;-62
2023/03/20 02:25:14;;;;;;;13.10;4.20;;;23.80;40.00;;;;;;5121610;27;20100;-62
2023/03/20 02:28:17;;;;;;;9.00;3.05;;;23.80;39.60;;;;;;5116912;27;20116;-62
2023/03/20 02:31:12;;;;;;;16.25;3.03;;;23.70;39.50;;;;;;5119318;27;20100;-62
2023/03/20 02:34:38;;;;;;;15.13;3.22;;;23.70;40.70;;;;;;5093981;27;20118;-63
2023/03/20 02:37:26;;;;;;;15.35;5.07;;;23.70;40.90;;;;;;5067052;27;20502;-62
2023/03/20 02:40:10;;;;;;;14.75;3.90;;;23.60;40.80;;;;;;5117035;27;20544;-59
2023/03/20 02:42:50;;;;;;;15.10;4.63;;;23.60;40.50;;;;;;5118481;27;20083;-58
2023/03/20 02:45:30;;;;;;;17.52;4.82;;;23.50;40.80;;;;;;5117495;27;20570;-63
2023/03/20 02:48:10;;;;;;;14.20;7.13;;;23.50;42.60;;;;;;5118870;27;20520;-63
2023/03/20 02:51:02;;;;;;;13.05;5.20;;;23.50;41.50;;;;;;5116407;27;20156;-62
2023/03/20 02:53:45;;;;;;;17.45;4.30;;;23.40;41.20;;;;;;5117311;27;20082;-61
2023/03/20 02:56:36;;;;;;;24.40;3.90;;;23.40;41.20;;;;;;5116835;27;20079;-62
2023/03/20 02:59:09;;;;;;;15.45;3.85;;;23.40;41.00;;;;;;5118352;27;20153;-61
2023/03/20 03:01:41;;;;;;;16.83;5.05;;;23.50;42.00;;;;;;5121840;27;20066;-61
2023/03/20 03:04:21;;;;;;;22.50;5.80;;;23.40;41.80;;;;;;5114382;27;20095;-62
2023/03/20 03:06:50;;;;;;;16.58;3.53;;;23.40;41.70;;;;;;5120490;28;20066;-61
2023/03/20 03:09:22;;;;;;;13.88;3.33;;;23.40;42.10;;;;;;5115597;28;20102;-62
2023/03/20 03:12:00;;;;;;;28.65;11.25;;;23.40;42.40;;;;;;5116418;28;20103;-61
2023/03/20 03:14:46;;;;;;;13.32;5.15;;;23.40;41.90;;;;;;5122040;28;20082;-63
2023/03/20 03:17:15;;;;;;;12.60;4.65;;;23.30;42.90;;;;;;5119593;28;20442;-62
2023/03/20 03:19:46;;;;;;;8.43;3.47;;;23.20;43.00;;;;;;5118009;28;20082;-63
2023/03/20 03:22:17;;;;;;;10.15;3.95;;;23.10;43.30;;;;;;5116729;28;20523;-62
2023/03/20 03:24:46;;;;;;;10.18;3.53;;;23.10;43.30;;;;;;5116239;28;20542;-63
2023/03/20 03:27:23;;;;;;;14.18;4.95;;;23.10;43.30;;;;;;5121513;28;20067;-62
2023/03/20 03:30:06;;;;;;;12.75;2.35;;;23.00;43.20;;;;;;5120099;28;20132;-61
2023/03/20 03:32:36;;;;;;;9.18;2.00;;;22.90;43.90;;;;;;5120095;28;20516;-62
2023/03/20 03:35:05;;;;;;;19.88;3.10;;;22.80;44.30;;;;;;5121628;28;20111;-61
2023/03/20 03:37:53;;;;;;;13.48;2.60;;;22.70;44.70;;;;;;5121050;28;20533;-62
2023/03/20 03:40:37;;;;;;;14.27;3.10;;;22.70;44.30;;;;;;5120113;28;20214;-61
2023/03/20 03:43:31;;;;;;;11.93;3.35;;;22.70;44.00;;;;;;5116338;28;20426;-62
2023/03/20 03:46:29;;;;;;;9.50;3.22;;;22.70;43.80;;;;;;5115377;28;20120;-61
2023/03/20 03:48:57;;;;;;;11.25;3.30;;;22.70;44.00;;;;;;5119576;28;20063;-61
2023/03/20 03:51:28;;;;;;;16.48;3.25;;;22.70;43.30;;;;;;5125455;28;20147;-61
2023/03/20 03:54:08;;;;;;;10.82;2.92;;;22.60;43.40;;;;;;5116889;28;20558;-62
2023/03/20 03:56:37;;;;;;;8.27;3.08;;;22.60;43.30;;;;;;5114742;28;20079;-62
2023/03/20 03:59:12;;;;;;;13.20;3.13;;;22.60;43.50;;;;;;5109513;28;20087;-61
2023/03/20 04:01:43;;;;;;;11.23;3.83;;;22.60;43.80;;;;;;5111289;28;20074;-59
2023/03/20 04:04:12;;;;;;;16.42;4.03;;;22.50;44.10;;;;;;5113417;28;20075;-62
2023/03/20 04:06:39;;;;;;;14.45;3.58;;;22.50;44.60;;;;;;5119348;28;20250;-65
2023/03/20 04:09:05;;;;;;;14.48;3.63;;;22.50;44.80;;;;;;5121944;28;20574;-65
2023/03/20 04:11:31;;;;;;;15.32;3.10;;;22.50;44.80;;;;;;5114232;28;20094;-64
2023/03/20 04:13:58;;;;;;;16.05;2.53;;;22.50;44.90;;;;;;5117406;28;20090;-63
2023/03/20 04:16:25;;;;;;;13.13;2.95;;;22.50;45.10;;;;;;5112999;28;20242;-66
2023/03/20 04:18:52;;;;;;;8.60;2.33;;;22.50;44.90;;;;;;5112566;28;20090;-66
2023/03/20 04:21:18;;;;;;;15.07;3.30;;;22.50;45.50;;;;;;5117038;27;20187;-66
2023/03/20 04:23:45;;;;;;;13.57;3.22;;;22.40;44.90;;;;;;5117931;27;20135;-63
2023/03/20 04:26:12;;;;;;;18.75;3.72;;;22.50;45.60;;;;;;5122534;27;20071;-65
2023/03/20 04:28:38;;;;;;;12.23;3.50;;;22.30;45.50;;;;;;5118421;27;20071;-67
2023/03/20 04:31:05;;;;;;;11.07;3.10;;;22.20;45.80;;;;;;5116601;27;20067;-66
2023/03/20 04:33:31;;;;;;;7.30;2.63;;;22.20;45.80;;;;;;5119401;27;20156;-65
2023/03/20 04:35:58;;;;;;;13.40;2.90;;;22.20;45.80;;;;;;5119799;27;20062;-64
2023/03/20 04:38:24;;;;;;;6.88;2.75;;;22.30;45.50;;;;;;5119714;27;20564;-65
2023/03/20 04:40:51;;;;;;;11.27;3.03;;;22.30;45.80;;;;;;5106070;27;20087;-66
2023/03/20 04:43:17;;;;;;;10.50;2.90;;;22.00;48.10;;;;;;5105294;27;20516;-67
2023/03/20 04:45:44;;;;;;;24.95;3.28;;;21.90;49.20;;;;;;5117012;27;20067;-64
2023/03/20 04:48:11;;;;;;;16.33;2.88;;;21.80;48.90;;;;;;5116634;27;20063;-64
2023/03/20 04:50:37;;;;;;;10.93;2.10;;;21.80;48.70;;;;;;5123225;27;20066;-65
2023/03/20 04:53:04;;;;;;;13.77;2.78;;;21.70;48.40;;;;;;5126533;27;20640;-65
2023/03/20 04:55:31;;;;;;;9.15;2.30;;;21.70;48.40;;;;;;5125407;27;20165;-65
2023/03/20 04:57:57;;;;;;;15.93;2.40;;;21.70;49.20;;;;;;5104588;27;20081;-64
2023/03/20 05:00:23;;;;;;;12.40;2.63;;;21.60;50.30;;;;;;5120625;27;20098;-66
2023/03/20 05:02:50;;;;;;;14.27;2.65;;;21.50;51.20;;;;;;5118083;27;20439;-64
2023/03/20 05:05:16;;;;;;;10.25;2.38;;;21.40;52.20;;;;;;5131431;27;20075;-66
2023/03/20 05:07:43;;;;;;;18.35;2.80;;;21.40;52.40;;;;;;5126132;27;20090;-63
2023/03/20 05:10:10;;;;;;;13.18;2.03;;;21.40;52.50;;;;;;5117660;27;21425;-64
2023/03/20 05:12:36;;;;;;;11.00;1.83;;;21.40;52.90;;;;;;5119795;27;20075;-66
2023/03/20 05:15:03;;;;;;;5.75;1.73;;;21.20;53.20;;;;;;5121329;27;20085;-66
2023/03/20 05:17:29;;;;;;;12.32;2.47;;;21.20;53.40;;;;;;5122770;27;20173;-68
2023/03/20 05:19:56;;;;;;;36.10;3.90;;;21.10;53.90;;;;;;5123982;27;20090;-65
2023/03/20 05:22:22;;;;;;;43.65;3.55;;;21.10;54.10;;;;;;5122153;27;20096;-67
2023/03/20 05:24:49;;;;;;;20.77;1.98;;;21.10;54.30;;;;;;5124433;27;20093;-65
2023/03/20 05:27:15;;;;;;;12.20;2.03;;;21.20;54.10;;;;;;5125695;27;20081;-63
2023/03/20 05:29:41;;;;;;;10.20;1.73;;;21.20;54.10;;;;;;5122990;27;20439;-64
2023/03/20 05:32:08;;;;;;;13.35;2.42;;;21.10;54.10;;;;;;5119779;27;20067;-64
2023/03/20 05:34:34;;;;;;;12.00;2.40;;;21.10;54.20;;;;;;5122492;27;20122;-64
2023/03/20 05:37:01;;;;;;;15.40;2.03;;;21.10;54.00;;;;;;5123730;27;20555;-63
2023/03/20 05:39:27;;;;;;;7.28;2.03;;;21.10;54.30;;;;;;5121681;27;21482;-62
2023/03/20 05:41:54;;;;;;;9.68;2.35;;;21.00;53.90;;;;;;5124252;27;20071;-62
2023/03/20 05:44:20;;;;;;;15.27;4.50;;;21.00;53.80;;;;;;5120023;27;20062;-63
2023/03/20 05:46:47;;;;;;;18.23;2.88;;;20.90;54.30;;;;;;5120610;27;20120;-64
2023/03/20 05:49:13;;;;;;;7.55;2.13;;;21.00;54.40;;;;;;5122058;27;20111;-62
2023/03/20 05:51:40;;;;;;;5.65;2.60;;;20.80;54.40;;;;;;5121351;27;20523;-64
2023/03/20 05:54:06;;;;;;;8.38;1.73;;;20.60;54.80;;;;;;5123181;27;20075;-64
2023/03/20 05:56:32;;;;;;;6.45;1.60;;;20.50;55.20;;;;;;5128578;27;20120;-62
2023/03/20 05:58:59;;;;;;;280.48;221.77;;;20.50;55.80;;;;;;5122363;27;20432;-65
2023/03/20 06:01:25;;;;;;;46.08;33.10;;;20.50;56.00;;;;;;5124748;27;20181;-65
2023/03/20 06:03:52;;;;;;;330.90;279.17;;;20.50;56.20;;;;;;5119608;27;20099;-62
2023/03/20 06:06:18;;;;;;;10.98;7.18;;;20.40;56.40;;;;;;5124398;27;20075;-63
2023/03/20 06:08:45;;;;;;;6.20;2.08;;;20.40;56.80;;;;;;5119635;27;20103;-64
2023/03/20 06:11:11;;;;;;;4.70;1.65;;;20.20;57.20;;;;;;5123934;27;20094;-62
2023/03/20 06:13:38;;;;;;;7.30;1.75;;;20.10;58.00;;;;;;5115656;27;20081;-64
2023/03/20 06:16:05;;;;;;;8.98;1.88;;;20.10;58.60;;;;;;5114054;27;20077;-63
2023/03/20 06:18:31;;;;;;;4.93;1.77;;;19.90;59.10;;;;;;5114733;27;20079;-63
2023/03/20 06:20:58;;;;;;;5.35;1.60;;;19.80;59.50;;;;;;5117594;27;20536;-61
2023/03/20 06:23:24;;;;;;;4.88;1.50;;;19.80;59.80;;;;;;5121138;27;20087;-63
2023/03/20 06:25:51;;;;;;;4.50;1.60;;;19.70;59.80;;;;;;5121378;27;20067;-62
2023/03/20 06:28:17;;;;;;;7.38;1.92;;;19.70;60.40;;;;;;5120690;27;20200;-63
2023/03/20 06:30:44;;;;;;;5.00;1.95;;;19.50;60.70;;;;;;5121521;27;20079;-64
2023/03/20 06:33:10;;;;;;;6.55;1.98;;;19.60;61.10;;;;;;5118236;27;20165;-62
2023/03/20 06:35:37;;;;;;;6.32;1.60;;;19.60;60.60;;;;;;5121190;27;20515;-63
2023/03/20 06:38:04;;;;;;;5.68;1.90;;;19.60;60.90;;;;;;5120222;27;20087;-62
2023/03/20 06:40:30;;;;;;;7.55;2.05;;;19.60;61.50;;;;;;5119672;27;21559;-63
2023/03/20 06:42:57;;;;;;;16.75;6.13;;;19.60;61.80;;;;;;5120978;27;20420;-62
2023/03/20 06:45:23;;;;;;;21.45;12.73;;;19.50;62.00;;;;;;5118709;27;20088;-63
2023/03/20 06:47:49;;;;;;;19.85;10.23;;;19.40;62.00;;;;;;5104877;27;20067;-64
2023/03/20 06:50:16;;;;;;;13.07;5.00;;;19.30;62.00;;;;;;5120021;27;20090;-62
2023/03/20 06:52:43;;;;;;;9.90;2.80;;;19.20;62.50;;;;;;5119149;27;20435;-62
2023/03/20 06:55:10;;;;;;;7.38;2.20;;;19.10;63.20;;;;;;5120250;27;20078;-61
2023/03/20 06:57:37;;;;;;;9.40;2.30;;;19.00;63.50;;;;;;5119470;27;20124;-61
2023/03/20 07:00:04;;;;;;;8.32;1.83;;;18.90;64.00;;;;;;5118234;27;20122;-60
2023/03/20 07:02:31;;;;;;;5.50;1.63;;;18.90;64.20;;;;;;5121806;27;20067;-63
2023/03/20 07:04:57;;;;;;;8.30;1.95;;;18.90;63.90;;;;;;5118999;27;20067;-63
2023/03/20 07:07:24;;;;;;;10.77;2.15;;;19.00;63.80;;;;;;5122795;27;20479;-62
2023/03/20 07:09:51;;;;;;;8.77;2.92;;;18.90;63.70;;;;;;5121338;28;20143;-62
2023/03/20 07:12:21;;;;;;;10.13;2.55;;;18.90;64.60;;;;;;5120260;28;20121;-64
2023/03/20 07:14:48;;;;;;;12.35;2.85;;;18.90;64.50;;;;;;5122776;28;20078;-64
2023/03/20 07:17:15;;;;;;;7.70;2.80;;;18.90;64.40;;;;;;5119376;28;20087;-63
2023/03/20 07:19:41;;;;;;;9.27;2.97;;;18.80;65.00;;;;;;5119724;28;20116;-62
2023/03/20 07:22:14;;;;;;;9.40;3.03;;;18.80;65.00;;;;;;5120615;28;20075;-62
2023/03/20 07:24:40;;;;;;;9.45;2.42;;;18.80;64.90;;;;;;5124305;28;20059;-63
2023/03/20 07:27:07;;;;;;;8.50;2.58;;;18.80;65.40;;;;;;5122774;28;20393;-62
2023/03/20 07:29:33;;;;;;;11.27;2.28;;;18.60;65.50;;;;;;5125640;28;20107;-62
2023/03/20 07:32:01;;;;;;;14.68;2.33;;;18.50;65.60;;;;;;5121348;28;20075;-62
2023/03/20 07:34:27;;;;;;;13.90;3.03;;;18.50;65.80;;;;;;5120870;28;20121;-64
2023/03/20 07:36:54;;;;;;;13.20;4.40;;;18.50;65.80;;;;;;5117560;28;20071;-64
2023/03/20 07:39:21;;;;;;;9.30;2.97;;;18.40;65.90;;;;;;5120948;28;20558;-62
2023/03/20 07:41:47;;;;;;;11.52;2.45;;;18.30;66.40;;;;;;5121590;28;20075;-64
2023/03/20 07:44:14;;;;;;;13.88;2.08;;;18.30;66.40;;;;;;5122626;28;20093;-62
2023/03/20 07:46:41;;;;;;;13.10;1.90;;;18.30;66.40;;;;;;5122540;28;20063;-63
2023/03/20 07:49:07;;;;;;;15.35;2.70;;;18.20;67.20;;;;;;5116690;28;20072;-62
2023/03/20 07:51:34;;;;;;;10.30;2.50;;;18.20;67.30;;;;;;5121228;28;20082;-62
2023/03/20 07:54:00;;;;;;;16.50;3.60;;;18.20;67.00;;;;;;5120304;28;20079;-63
2023/03/20 07:56:27;;;;;;;12.48;2.60;;;18.20;67.20;;;;;;5121625;27;20170;-62
2023/03/20 07:58:53;;;;;;;10.85;2.20;;;18.20;67.50;;;;;;5126636;27;20123;-63
2023/03/20 08:01:19;;;;;;;15.55;2.58;;;18.30;67.40;;;;;;5122926;27;20530;-62
2023/03/20 08:03:46;;;;;;;10.63;2.40;;;18.30;67.00;;;;;;5126650;27;20062;-64
2023/03/20 08:06:12;;;;;;;19.15;2.50;;;18.20;67.40;;;;;;5119844;27;20520;-62
2023/03/20 08:08:39;;;;;;;14.82;2.10;;;18.20;67.80;;;;;;5125848;27;20137;-62
2023/03/20 08:11:05;;;;;;;14.52;2.28;;;18.20;68.10;;;;;;5125656;27;20490;-63
2023/03/20 08:13:32;;;;;;;16.58;2.40;;;18.00;68.50;;;;;;5121310;27;20079;-62
2023/03/20 08:15:58;;;;;;;16.67;2.45;;;18.00;68.50;;;;;;5124982;27;20531;-63
2023/03/20 08:18:25;;;;;;;18.25;2.70;;;18.00;68.80;;;;;;5121446;27;20092;-62
2023/03/20 08:20:51;;;;;;;11.65;2.60;;;17.90;69.60;;;;;;5123418;27;20174;-62
2023/03/20 08:23:18;;;;;;;14.90;2.55;;;17.80;69.70;;;;;;5126544;27;20125;-62
2023/03/20 08:25:48;;;;;;;11.00;2.30;;;17.80;70.00;;;;;;5122032;27;20444;-62
2023/03/20 08:28:15;;;;;;;25.55;2.80;;;17.90;70.10;;;;;;5123589;27;20119;-64
2023/03/20 08:30:42;;;;;;;14.80;2.47;;;17.80;70.40;;;;;;5125571;27;20554;-62
2023/03/20 08:33:09;;;;;;;14.88;2.78;;;17.80;70.80;;;;;;5124849;27;20198;-63
2023/03/20 08:35:35;;;;;;;12.98;1.95;;;17.70;71.40;;;;;;5127010;27;20126;-64
2023/03/20 08:38:02;;;;;;;19.52;3.28;;;17.70;71.70;;;;;;5123336;27;20158;-62
2023/03/20 08:40:29;;;;;;;16.50;2.75;;;17.70;72.60;;;;;;5124889;27;20086;-62
2023/03/20 08:42:55;;;;;;;17.75;2.45;;;17.60;72.60;;;;;;5123971;27;20074;-62
2023/03/20 08:45:24;;;;;;;21.75;2.42;;;17.60;72.80;;;;;;5126607;27;20456;-63
2023/03/20 08:47:52;;;;;;;21.75;2.55;;;17.70;73.00;;;;;;5123835;27;20158;-63
2023/03/20 08:50:18;;;;;;;17.63;2.58;;;17.80;72.30;;;;;;5122424;27;20082;-62
2023/03/20 08:52:45;;;;;;;17.42;2.17;;;17.80;72.00;;;;;;5106095;27;20115;-61
2023/03/20 08:55:13;;;;;;;13.98;2.58;;;17.80;72.00;;;;;;5124624;27;20074;-62
2023/03/20 08:57:40;;;;;;;15.95;2.08;;;17.80;72.40;;;;;;5125088;27;20082;-62
2023/03/20 09:00:08;;;;;;;18.10;2.35;;;17.90;72.80;;;;;;5124444;27;20091;-63
2023/03/20 09:02:35;;;;;;;18.00;2.67;;;18.00;72.70;;;;;;5122611;27;20475;-62
2023/03/20 09:05:02;;;;;;;23.92;2.80;;;18.00;72.50;;;;;;5124459;27;20071;-62
2023/03/20 09:07:28;;;;;;;23.08;2.75;;;17.90;72.60;;;;;;5120704;27;20094;-61
2023/03/20 09:09:55;;;;;;;24.52;2.72;;;17.90;73.40;;;;;;5125194;27;20527;-63
2023/03/20 09:12:21;;;;;;;23.05;2.63;;;17.90;73.20;;;;;;5122822;27;20532;-61
2023/03/20 09:14:47;;;;;;;25.42;3.05;;;18.00;73.20;;;;;;5126800;27;20078;-61
2023/03/20 09:17:14;;;;;;;18.05;2.05;;;17.90;73.30;;;;;;5123522;27;20071;-61
2023/03/20 09:19:43;;;;;;;25.17;2.78;;;17.80;73.50;;;;;;5123196;27;20083;-61
2023/03/20 09:22:14;;;;;;;17.20;2.47;;;17.70;73.80;;;;;;5124122;27;20160;-61
2023/03/20 09:24:40;;;;;;;26.05;2.85;;;17.70;74.50;;;;;;5122123;27;20067;-62
2023/03/20 09:27:07;;;;;;;29.10;3.53;;;17.70;74.60;;;;;;5123594;27;20067;-61
2023/03/20 09:29:33;;;;;;;31.35;3.00;;;17.60;75.20;;;;;;5120085;27;20079;-62
2023/03/20 09:32:00;;;;;;;25.33;2.35;;;17.40;75.60;;;;;;5122812;27;20092;-61
2023/03/20 09:34:26;;;;;;;22.65;2.80;;;17.50;75.70;;;;;;5104427;28;20114;-62
2023/03/20 09:36:53;;;;;;;20.42;2.55;;;17.60;75.50;;;;;;5102505;28;20082;-61
2023/03/20 09:39:19;;;;;;;26.67;2.65;;;17.50;75.30;;;;;;5101464;28;20083;-60
2023/03/20 09:41:51;;;;;;;26.50;2.42;;;17.40;75.80;;;;;;5106250;28;20072;-61
2023/03/20 09:44:36;;;;;;;20.73;2.90;;;17.50;75.70;;;;;;5104013;28;20071;-62
2023/03/20 09:47:09;;;;;;;20.88;2.60;;;17.60;75.80;;;;;;5106100;28;20063;-63
2023/03/20 09:49:51;;;;;;;28.52;3.05;;;17.40;76.20;;;;;;5107434;28;20103;-62
2023/03/20 09:52:31;;;;;;;20.13;2.80;;;17.40;76.20;;;;;;5108296;28;20083;-62
2023/03/20 09:55:07;;;;;;;25.70;3.03;;;17.40;76.70;;;;;;5107645;28;20545;-62
2023/03/20 09:57:52;;;;;;;22.20;2.55;;;17.30;77.50;;;;;;5105080;28;20103;-62
2023/03/20 10:00:23;;;;;;;20.08;2.70;;;17.10;78.10;;;;;;5103994;28;20505;-63
2023/03/20 10:03:00;;;;;;;24.65;2.97;;;17.10;78.30;;;;;;5103621;28;20154;-63
2023/03/20 10:05:33;;;;;;;18.92;2.70;;;17.10;78.20;;;;;;5100169;28;20086;-63
2023/03/20 10:08:02;;;;;;;26.92;2.40;;;17.00;78.90;;;;;;5106264;28;20099;-62
2023/03/20 10:10:40;;;;;;;18.50;2.28;;;17.00;78.90;;;;;;5107617;28;20071;-63
2023/03/20 10:13:37;;;;;;;22.98;2.88;;;17.10;79.30;;;;;;5108258;28;20067;-62
2023/03/20 10:16:06;;;;;;;29.13;2.88;;;16.80;79.20;;;;;;5099737;28;20095;-64
2023/03/20 10:18:37;;;;;;;26.40;2.88;;;16.90;79.80;;;;;;5106084;28;20532;-63
2023/03/20 10:21:17;;;;;;;22.13;2.72;;;16.90;79.70;;;;;;5102920;28;20174;-64
2023/03/20 10:24:02;;;;;;;28.77;2.85;;;16.90;80.00;;;;;;5102555;28;20084;-62
2023/03/20 10:26:33;;;;;;;26.92;3.63;;;16.80;80.50;;;;;;5104560;28;20105;-62
2023/03/20 10:29:15;;;;;;;31.30;3.03;;;16.70;80.80;;;;;;5105033;28;20540;-63
2023/03/20 10:31:54;;;;;;;24.27;2.88;;;16.80;80.70;;;;;;5103168;28;20079;-62
2023/03/20 10:35:08;;;;;;;21.02;2.65;;;16.80;80.70;;;;;;5113691;27;20117;-64
2023/03/20 10:37:48;;;;;;;27.92;3.50;;;16.80;80.60;;;;;;5058872;28;20558;-62
2023/03/20 10:40:31;;;;;;;23.75;3.65;;;16.80;80.80;;;;;;5123000;27;20095;-63
2023/03/20 10:43:03;;;;;;;17.92;3.50;;;16.80;80.60;;;;;;5121744;27;20086;-61
2023/03/20 10:45:50;;;;;;;24.13;6.45;;;16.70;81.20;;;;;;5101881;27;20169;-63
2023/03/20 10:48:28;;;;;;;31.70;5.78;;;16.70;80.90;;;;;;5121773;27;20099;-62
2023/03/20 10:50:58;;;;;;;35.15;10.73;;;16.70;81.00;;;;;;5121692;27;20525;-61
2023/03/20 10:53:50;;;;;;;30.77;9.35;;;16.70;80.40;;;;;;5123836;27;20101;-61
2023/03/20 10:56:31;;;;;;;27.88;9.40;;;16.70;80.00;;;;;;5121902;27;20092;-61
2023/03/20 10:59:07;;;;;;;34.28;11.15;;;16.70;80.10;;;;;;5125505;27;20070;-62
2023/03/20 11:01:34;;;;;;;32.17;10.93;;;16.70;79.90;;;;;;5123021;27;20090;-64
2023/03/20 11:04:00;;;;;;;37.03;12.30;;;16.60;79.70;;;;;;5118814;27;20068;-62
2023/03/20 11:06:31;;;;;;;39.85;11.68;;;16.60;79.60;;;;;;5119927;28;20166;-63
2023/03/20 11:09:26;;;;;;;40.20;12.95;;;16.60;79.50;;;;;;5125009;28;20083;-63
2023/03/20 11:11:57;;;;;;;36.10;13.23;;;16.50;79.60;;;;;;5120684;28;20087;-64
2023/03/20 11:14:26;;;;;;;44.10;13.80;;;16.40;79.70;;;;;;5118655;28;20090;-62
2023/03/20 11:16:55;;;;;;;34.08;14.23;;;16.30;80.30;;;;;;5118670;27;20098;-63
2023/03/20 11:19:22;;;;;;;39.90;13.60;;;16.40;80.40;;;;;;5117745;28;20432;-63
2023/03/20 11:21:52;;;;;;;39.40;12.98;;;16.60;80.60;;;;;;5117083;28;20074;-61
2023/03/20 11:24:26;;;;;;;45.35;13.18;;;16.60;79.80;;;;;;5123388;28;20166;-62
2023/03/20 11:26:54;;;;;;;45.75;13.48;;;16.70;79.60;;;;;;5120463;28;20094;-63
2023/03/20 11:29:34;;;;;;;45.45;14.73;;;16.80;79.60;;;;;;5121529;27;20078;-62
2023/03/20 11:32:30;;;;;;;42.50;13.82;;;16.80;78.90;;;;;;5125631;27;20072;-61
2023/03/20 11:35:19;;;;;;;58.80;15.23;;;16.90;78.60;;;;;;5119055;27;20565;-60
2023/03/20 11:37:52;;;;;;;46.47;13.40;;;17.10;78.10;;;;;;5126732;27;20086;-61
2023/03/20 11:40:31;;;;;;;58.08;14.52;;;17.20;77.10;;;;;;5124037;27;20598;-62
2023/03/20 11:43:18;;;;;;;46.88;13.82;;;17.00;76.90;;;;;;5122124;27;20078;-60
2023/03/20 11:45:48;;;;;;;47.95;12.48;;;16.90;77.30;;;;;;5125538;27;20499;-61
2023/03/20 11:48:16;;;;;;;42.05;12.40;;;16.70;77.60;;;;;;5125569;27;20159;-63
2023/03/20 11:50:47;;;;;;;44.80;12.57;;;16.60;77.90;;;;;;5126376;27;20075;-63
2023/03/20 11:53:46;;;;;;;46.83;11.45;;;16.60;78.20;;;;;;5124627;27;20165;-61
2023/03/20 11:56:15;;;;;;;42.80;12.05;;;16.60;78.30;;;;;;5129187;27;20531;-63
2023/03/20 11:59:17;;;;;;;44.05;11.82;;;16.50;78.30;;;;;;5126364;27;20141;-60
2023/03/20 12:01:47;;;;;;;50.30;14.25;;;16.50;78.40;;;;;;5124415;27;21842;-62
2023/03/20 12:04:36;;;;;;;49.80;14.80;;;16.50;78.60;;;;;;5125046;27;20529;-62
2023/03/20 12:07:14;;;;;;;49.95;15.68;;;16.60;78.50;;;;;;5124371;27;20090;-63
2023/03/20 12:10:10;;;;;;;48.13;16.60;;;16.60;78.50;;;;;;5130302;27;20082;-63
2023/03/20 12:12:44;;;;;;;44.33;18.20;;;16.60;78.20;;;;;;5122216;27;20084;-62
2023/03/20 12:15:17;;;;;;;51.65;19.60;;;16.60;78.20;;;;;;5125385;27;20087;-62
2023/03/20 12:17:56;;;;;;;59.25;23.15;;;16.50;78.30;;;;;;5126978;27;20108;-63
2023/03/20 12:20:31;;;;;;;64.78;27.75;;;16.40;78.80;;;;;;5126755;27;20079;-62
2023/03/20 12:23:13;;;;;;;78.35;32.30;;;16.30;78.80;;;;;;5128627;27;20493;-63
2023/03/20 12:25:47;;;;;;;81.28;35.35;;;16.20;79.30;;;;;;5125520;27;20208;-62
2023/03/20 12:28:38;;;;;;;77.07;32.38;;;16.20;79.90;;;;;;5125995;27;20075;-61
2023/03/20 12:31:46;;;;;;;57.60;22.17;;;16.20;80.30;;;;;;5124534;27;20189;-61
2023/03/20 12:34:25;;;;;;;56.30;20.03;;;16.20;80.00;;;;;;5123566;27;20114;-61
2023/03/20 12:36:56;;;;;;;44.83;15.50;;;16.20;80.40;;;;;;5126261;27;20103;-63
2023/03/20 12:39:30;;;;;;;42.42;13.38;;;16.10;80.50;;;;;;5122277;27;20503;-62
2023/03/20 12:42:15;;;;;;;41.00;12.60;;;16.00;80.90;;;;;;5124625;27;20064;-62
2023/03/20 12:44:51;;;;;;;57.40;11.88;;;16.10;81.20;;;;;;5121847;27;20521;-62
2023/03/20 12:47:53;;;;;;;54.72;11.00;;;16.00;81.30;;;;;;5126334;27;20070;-63
2023/03/20 12:50:46;;;;;;;38.67;10.75;;;16.00;81.40;;;;;;5095407;27;20188;-62
2023/03/20 12:53:36;;;;;;;42.55;10.55;;;16.10;81.40;;;;;;5124565;27;20083;-62
2023/03/20 12:56:13;;;;;;;39.20;11.73;;;16.00;81.60;;;;;;5127688;27;20075;-60
2023/03/20 12:59:16;;;;;;;38.47;11.68;;;16.00;81.80;;;;;;5125313;27;20095;-61
2023/03/20 13:01:56;;;;;;;42.65;12.98;;;16.10;82.10;;;;;;5127145;27;20077;-63